Time;durP1;ratioP1;P1;durP2;ratioP2;P2;SDS_P1;SDS_P2;PMS_P1;PMS_P2;Temp;Humidity;BMP_temperature;BMP_pressure;BME280_temperature;BME280_humidity;BME280_pressure;Samples;Min_cycle;Max_cycle;Signal;HPM_P1;HPM_P2
2022/08/17 00:01:01;;;;;;;10.40;4.80;;;;;;;27.45;38.78;98044.75;4503002;31;20204;-84
2022/08/17 00:03:32;;;;;;;10.18;4.93;;;;;;;27.45;38.87;98047.47;4488203;31;20183;-83
2022/08/17 00:06:19;;;;;;;11.55;5.20;;;;;;;27.45;38.94;98050.19;4502886;31;20092;-83
2022/08/17 00:08:49;;;;;;;11.20;5.12;;;;;;;27.23;39.37;98053.03;4502491;31;20092;-84
2022/08/17 00:11:30;;;;;;;10.80;4.75;;;;;;;27.35;39.32;98052.44;4502406;31;20079;-83
2022/08/17 00:14:00;;;;;;;13.23;5.00;;;;;;;27.39;39.52;98042.87;4488263;31;20138;-83
2022/08/17 00:16:41;;;;;;;11.38;5.10;;;;;;;27.37;39.48;98042.25;4502852;31;20096;-83
2022/08/17 00:19:10;;;;;;;10.50;4.93;;;;;;;27.37;39.52;98043.09;4502740;31;20083;-83
2022/08/17 00:21:38;;;;;;;10.02;4.85;;;;;;;27.35;39.58;98041.63;4502531;31;20080;-83
2022/08/17 00:24:03;;;;;;;10.73;5.40;;;;;;;27.33;39.62;98043.72;4502351;31;20122;-85
2022/08/17 00:26:29;;;;;;;10.05;4.30;;;;;;;27.30;39.70;98034.16;4492516;31;20088;-85
2022/08/17 00:28:55;;;;;;;10.90;5.10;;;;;;;27.31;39.59;98043.09;4471422;32;20100;-86
2022/08/17 00:31:21;;;;;;;10.55;4.87;;;;;;;27.28;39.46;98043.53;4470890;32;20131;-85
2022/08/17 00:33:47;;;;;;;11.10;4.78;;;;;;;27.24;39.58;98038.53;4471506;32;20103;-85
2022/08/17 00:36:13;;;;;;;10.02;5.05;;;;;;;27.25;39.52;98034.81;4470721;32;20081;-86
2022/08/17 00:38:39;;;;;;;10.83;5.30;;;;;;;27.27;39.72;98039.97;4471391;32;20383;-85
2022/08/17 00:41:09;;;;;;;10.23;5.00;;;;;;;27.27;39.75;98042.69;4470938;32;20178;-85
2022/08/17 00:43:38;;;;;;;11.00;5.55;;;;;;;27.25;39.78;98042.06;4471199;32;20093;-84
2022/08/17 00:46:08;;;;;;;12.45;5.45;;;;;;;27.24;39.85;98038.53;4470854;32;20100;-85
2022/08/17 00:48:34;;;;;;;12.40;5.30;;;;;;;27.24;39.91;98043.94;4469679;32;20128;-84
2022/08/17 00:51:20;;;;;;;10.52;5.15;;;;;;;27.22;39.90;98039.75;4469611;32;20168;-83
2022/08/17 00:54:04;;;;;;;11.38;5.28;;;;;;;27.21;39.95;98038.91;4458991;32;20874;-84
2022/08/17 00:56:33;;;;;;;11.50;5.40;;;;;;;27.24;39.91;98038.53;4471100;32;20123;-84
2022/08/17 00:59:01;;;;;;;9.80;5.03;;;;;;;27.19;40.03;98042.87;4471250;32;20075;-83
2022/08/17 01:01:26;;;;;;;10.45;5.40;;;;;;;27.17;40.11;98039.53;4469685;32;20096;-84
2022/08/17 01:03:53;;;;;;;11.60;5.28;;;;;;;27.16;40.11;98045.97;4469934;32;20105;-85
2022/08/17 01:06:20;;;;;;;10.73;5.43;;;;;;;27.15;40.19;98050.56;4456624;32;20084;-85
2022/08/17 01:08:45;;;;;;;11.75;5.30;;;;;;;27.15;40.23;98047.03;4469717;32;20084;-83
2022/08/17 01:11:11;;;;;;;11.05;5.35;;;;;;;27.15;40.32;98049.75;4469496;32;20224;-84
2022/08/17 01:13:39;;;;;;;11.00;5.87;;;;;;;27.11;40.36;98048.50;4470253;32;20085;-85
2022/08/17 01:16:21;;;;;;;10.80;5.30;;;;;;;27.07;40.39;98048.06;4469911;32;20448;-84
2022/08/17 01:18:49;;;;;;;11.10;5.55;;;;;;;27.05;40.58;98055.56;4469680;32;20068;-85
2022/08/17 01:21:40;;;;;;;10.43;5.12;;;;;;;27.06;40.83;98071.59;4469630;32;20156;-84
2022/08/17 01:24:07;;;;;;;11.57;5.85;;;;;;;27.16;41.34;98065.75;4469097;32;20105;-85
2022/08/17 01:26:33;;;;;;;11.30;5.75;;;;;;;27.06;41.92;98068.03;4469473;32;20172;-85
2022/08/17 01:28:59;;;;;;;11.40;5.28;;;;;;;27.02;42.25;98072.19;4470597;32;20159;-85
2022/08/17 01:31:28;;;;;;;10.73;5.55;;;;;;;26.97;42.39;98066.59;4470756;32;20503;-85
2022/08/17 01:33:54;;;;;;;11.60;5.30;;;;;;;26.88;42.57;98066.75;4470280;32;20096;-85
2022/08/17 01:36:20;;;;;;;10.75;5.45;;;;;;;26.86;42.50;98074.25;4469167;32;20145;-84
2022/08/17 01:38:45;;;;;;;11.65;5.25;;;;;;;26.82;42.68;98069.47;4470322;32;20093;-84
2022/08/17 01:41:13;;;;;;;10.30;5.43;;;;;;;26.76;42.73;98064.87;4470745;32;20129;-84
2022/08/17 01:43:51;;;;;;;11.27;5.53;;;;;;;26.68;42.83;98066.75;4468798;32;20096;-85
2022/08/17 01:46:22;;;;;;;12.10;5.50;;;;;;;26.72;42.80;98055.53;4469498;32;20160;-84
2022/08/17 01:48:49;;;;;;;11.88;5.65;;;;;;;26.73;42.72;98058.00;4469907;32;20089;-85
2022/08/17 01:51:15;;;;;;;11.20;5.57;;;;;;;26.68;42.80;98061.34;4456293;32;20115;-84
2022/08/17 01:53:46;;;;;;;12.45;5.87;;;;;;;26.54;42.97;98065.03;4469977;32;20480;-85
2022/08/17 01:56:14;;;;;;;11.63;5.72;;;;;;;26.52;43.02;98064.41;4470406;32;20080;-84
2022/08/17 01:58:41;;;;;;;12.05;5.85;;;;;;;26.51;42.96;98068.13;4486232;31;20096;-85
2022/08/17 02:01:06;;;;;;;11.20;5.12;;;;;;;26.54;42.83;98062.31;4501362;31;20088;-84
2022/08/17 02:03:34;;;;;;;10.70;5.45;;;;;;;26.55;42.89;98061.28;4487205;31;20104;-84
2022/08/17 02:06:00;;;;;;;11.05;5.37;;;;;;;26.51;42.98;98057.31;4501575;31;20463;-83
2022/08/17 02:08:27;;;;;;;10.25;5.30;;;;;;;26.50;42.91;98058.34;4487127;31;20068;-85
2022/08/17 02:10:53;;;;;;;11.77;5.53;;;;;;;26.44;42.90;98068.13;4487179;31;20434;-84
2022/08/17 02:13:19;;;;;;;10.77;5.60;;;;;;;26.44;42.83;98062.72;4501142;31;20143;-84
2022/08/17 02:15:45;;;;;;;13.02;5.60;;;;;;;26.41;42.83;98067.69;4486837;31;20171;-85
2022/08/17 02:18:11;;;;;;;11.70;5.70;;;;;;;26.40;42.80;98055.22;4501635;31;20151;-84
2022/08/17 02:20:37;;;;;;;11.77;5.68;;;;;;;26.38;42.80;98060.81;4501097;31;20401;-84
2022/08/17 02:23:04;;;;;;;10.53;5.90;;;;;;;26.40;42.73;98063.31;4501503;31;20104;-84
2022/08/17 02:25:31;;;;;;;11.65;5.68;;;;;;;26.39;42.78;98061.66;4486349;31;20095;-83
2022/08/17 02:27:57;;;;;;;10.65;5.60;;;;;;;26.38;42.76;98052.69;4489093;31;20139;-83
2022/08/17 02:30:23;;;;;;;10.73;5.45;;;;;;;26.39;42.72;98057.09;4503524;31;20092;-83
2022/08/17 02:32:51;;;;;;;12.40;5.87;;;;;;;26.40;42.81;98055.22;4503869;31;20095;-83
2022/08/17 02:35:16;;;;;;;11.68;5.68;;;;;;;26.39;42.84;98053.56;4488839;31;20583;-83
2022/08/17 02:37:42;;;;;;;11.18;5.60;;;;;;;26.33;42.90;98052.50;4488819;31;20200;-84
2022/08/17 02:40:08;;;;;;;12.02;5.40;;;;;;;26.36;42.85;98052.06;4503401;31;20100;-83
2022/08/17 02:42:37;;;;;;;10.82;6.37;;;;;;;26.36;42.88;98057.47;4475972;31;20177;-84
2022/08/17 02:45:05;;;;;;;10.90;5.62;;;;;;;26.35;42.92;98054.97;4489277;31;20620;-84
2022/08/17 02:47:30;;;;;;;11.50;6.00;;;;;;;26.37;42.89;98053.75;4503675;31;20092;-85
2022/08/17 02:49:56;;;;;;;11.30;5.32;;;;;;;26.38;42.94;98054.56;4502960;31;20386;-84
2022/08/17 02:52:22;;;;;;;12.02;6.30;;;;;;;26.39;42.88;98053.56;4488742;31;20150;-83
2022/08/17 02:54:48;;;;;;;10.85;5.87;;;;;;;26.38;42.92;98054.56;4489141;31;20126;-84
2022/08/17 02:57:13;;;;;;;11.40;5.85;;;;;;;26.35;43.02;98053.12;4503068;31;20091;-85
2022/08/17 02:59:39;;;;;;;11.02;5.95;;;;;;;26.33;43.10;98051.66;4488869;31;20126;-84
2022/08/17 03:02:06;;;;;;;11.65;5.78;;;;;;;26.32;43.14;98058.91;4502854;31;20481;-84
2022/08/17 03:04:32;;;;;;;12.27;5.97;;;;;;;26.32;43.06;98058.91;4489196;31;20107;-85
2022/08/17 03:06:57;;;;;;;11.85;6.37;;;;;;;26.31;43.04;98056.41;4503128;31;20079;-85
2022/08/17 03:09:23;;;;;;;11.57;6.22;;;;;;;26.31;43.10;98051.00;4503261;31;20162;-84
2022/08/17 03:11:49;;;;;;;12.27;6.05;;;;;;;26.32;43.10;98067.03;4502868;31;20100;-84
2022/08/17 03:14:15;;;;;;;12.20;5.90;;;;;;;26.31;43.18;98062.66;4488592;31;20451;-84
2022/08/17 03:16:41;;;;;;;11.02;5.53;;;;;;;26.30;43.35;98063.69;4503145;31;20096;-85
2022/08/17 03:19:06;;;;;;;12.00;5.68;;;;;;;26.33;43.36;98060.59;4503244;31;20156;-85
2022/08/17 03:21:32;;;;;;;11.05;5.65;;;;;;;26.26;43.51;98057.84;4503046;31;20123;-85
2022/08/17 03:23:57;;;;;;;11.32;5.80;;;;;;;26.22;43.57;98062.00;4503157;31;20385;-85
2022/08/17 03:26:23;;;;;;;12.43;6.05;;;;;;;26.13;43.59;98065.91;4502928;31;20122;-85
2022/08/17 03:28:48;;;;;;;12.00;5.85;;;;;;;25.88;44.25;98063.69;4502991;31;20096;-84
2022/08/17 03:31:13;;;;;;;11.88;5.97;;;;;;;26.04;43.87;98065.25;4488999;31;20208;-83
2022/08/17 03:33:39;;;;;;;12.32;6.22;;;;;;;26.11;43.83;98067.97;4502676;31;20096;-84
2022/08/17 03:36:05;;;;;;;12.77;6.50;;;;;;;26.18;43.83;98074.25;4503208;31;20477;-84
2022/08/17 03:38:32;;;;;;;12.13;6.07;;;;;;;26.16;43.92;98070.09;4502088;31;20092;-84
2022/08/17 03:40:57;;;;;;;12.15;6.20;;;;;;;26.18;43.92;98078.81;4503056;31;20137;-84
2022/08/17 03:43:23;;;;;;;14.45;6.40;;;;;;;26.18;43.82;98078.81;4488337;31;20486;-84
2022/08/17 03:57:02;;;;;;;11.38;6.00;;;;;;;26.23;43.58;98087.13;4503188;31;20167;-83
2022/08/17 03:59:28;;;;;;;12.48;6.60;;;;;;;26.30;43.48;98085.28;4502758;31;20074;-86
2022/08/17 04:01:55;;;;;;;12.07;6.05;;;;;;;26.33;43.45;98082.19;4502974;31;20120;-86
2022/08/17 04:04:20;;;;;;;11.93;6.82;;;;;;;26.35;43.49;98084.69;4488086;31;20099;-86
2022/08/17 04:06:46;;;;;;;11.25;6.03;;;;;;;26.36;43.32;98092.59;4503035;31;20118;-86
2022/08/17 04:09:12;;;;;;;12.13;6.05;;;;;;;26.44;43.12;98087.03;4502515;31;20147;-84
2022/08/17 04:11:37;;;;;;;13.10;6.03;;;;;;;26.55;43.12;98088.28;4502846;31;20140;-84
2022/08/17 04:14:04;;;;;;;11.65;6.03;;;;;;;26.57;42.99;98088.09;4488275;31;20088;-84
2022/08/17 04:16:31;;;;;;;11.50;5.80;;;;;;;26.70;42.81;98088.16;4502467;31;20200;-85
2022/08/17 04:18:56;;;;;;;11.10;6.05;;;;;;;26.78;42.70;98092.53;4502834;31;20107;-85
2022/08/17 04:21:22;;;;;;;11.60;6.12;;;;;;;26.85;42.54;98091.50;4502647;31;20491;-82
2022/08/17 04:23:47;;;;;;;13.05;5.90;;;;;;;26.97;42.39;98089.03;4488352;31;20371;-83
2022/08/17 04:26:13;;;;;;;13.15;6.45;;;;;;;26.83;42.38;98096.28;4502601;31;20100;-82
2022/08/17 04:28:40;;;;;;;11.40;6.32;;;;;;;27.05;42.04;98094.22;4488277;31;20421;-81
2022/08/17 04:31:08;;;;;;;11.57;5.93;;;;;;;27.19;42.14;98100.47;4502485;31;20096;-83
2022/08/17 04:33:33;;;;;;;11.73;6.28;;;;;;;27.33;42.02;98092.41;4488447;31;20103;-82
2022/08/17 04:36:01;;;;;;;11.07;6.07;;;;;;;27.49;41.88;98093.84;4502582;31;20450;-82
2022/08/17 04:38:28;;;;;;;;;;;;;;;27.51;41.68;98092.62;4503495;31;20522;-86
2022/08/17 04:43:40;;;;;;;12.35;5.70;;;;;;;27.54;41.20;98088.66;4502894;31;20157;-85
2022/08/17 04:46:08;;;;;;;10.88;5.43;;;;;;;27.46;41.67;98103.22;4502324;31;20060;-84
2022/08/17 04:48:42;;;;;;;11.98;6.40;;;;;;;27.72;41.48;98093.41;4502714;31;20370;-83
2022/08/17 04:51:10;;;;;;;12.13;6.18;;;;;;;27.73;41.38;98097.78;4500818;31;20488;-84
2022/08/17 04:53:36;;;;;;;10.35;5.82;;;;;;;28.09;40.58;98102.72;4502694;31;20114;-84
2022/08/17 04:56:02;;;;;;;12.32;6.00;;;;;;;28.15;39.91;98107.28;4502281;31;20092;-83
2022/08/17 04:58:28;;;;;;;11.45;6.40;;;;;;;28.32;41.46;98109.50;4502455;31;20084;-85
2022/08/17 05:00:53;;;;;;;12.37;6.40;;;;;;;28.47;41.74;98109.22;4492378;31;20128;-83
2022/08/17 05:03:19;;;;;;;13.68;6.12;;;;;;;28.51;41.81;98124.00;4486292;32;20203;-84
2022/08/17 05:05:48;;;;;;;10.93;5.80;;;;;;;28.49;41.95;98117.97;4486449;32;20092;-85
2022/08/17 05:08:15;;;;;;;11.18;6.10;;;;;;;28.50;41.12;98114.22;4472752;32;20088;-86
2022/08/17 05:10:41;;;;;;;10.77;5.87;;;;;;;28.32;40.89;98121.19;4472263;32;20130;-85
2022/08/17 05:13:09;;;;;;;11.75;5.87;;;;;;;27.68;41.85;98122.78;4471846;32;20229;-86
2022/08/17 05:15:37;;;;;;;13.73;6.62;;;;;;;28.07;40.96;98120.22;4486329;32;20084;-84
2022/08/17 05:18:03;;;;;;;10.88;6.05;;;;;;;27.78;41.49;98133.19;4471934;32;20107;-84
2022/08/17 05:20:30;;;;;;;18.48;6.32;;;;;;;28.20;40.18;98134.56;4486691;32;20095;-85
2022/08/17 05:22:59;;;;;;;11.35;5.75;;;;;;;28.18;40.28;98133.09;4465678;32;20130;-85
2022/08/17 05:25:28;;;;;;;13.62;6.20;;;;;;;27.87;40.90;98129.19;4470388;32;20111;-86
2022/08/17 05:27:54;;;;;;;12.45;6.10;;;;;;;28.16;40.72;98130.62;4469918;32;20154;-85
2022/08/17 05:30:21;;;;;;;13.25;6.78;;;;;;;28.36;41.35;98125.13;4471894;32;20089;-84
2022/08/17 05:33:13;;;;;;;11.25;6.20;;;;;;;28.79;41.51;98124.53;4473731;32;20088;-83
2022/08/17 05:35:45;;;;;;;12.48;6.25;;;;;;;29.12;40.49;98123.50;4467982;32;20126;-84
2022/08/17 05:38:12;;;;;;;11.12;5.68;;;;;;;29.28;39.65;98122.12;4470390;32;20526;-87
2022/08/17 05:40:38;;;;;;;10.68;5.82;;;;;;;29.36;39.66;98123.75;4468995;32;20139;-86
2022/08/17 05:43:10;;;;;;;12.60;6.35;;;;;;;29.60;40.15;98122.09;4479878;32;20088;-84
2022/08/17 05:45:39;;;;;;;12.40;6.35;;;;;;;29.63;40.45;98128.94;4473359;31;20088;-86
2022/08/17 05:48:06;;;;;;;12.80;6.90;;;;;;;29.80;40.32;98124.66;4469191;32;20089;-84
2022/08/17 05:50:41;;;;;;;12.35;6.47;;;;;;;29.86;40.23;98121.03;4470609;32;20757;-86
2022/08/17 05:53:25;;;;;;;12.02;6.15;;;;;;;30.01;39.56;98130.72;4456308;32;20108;-86
2022/08/17 05:56:02;;;;;;;12.95;6.15;;;;;;;29.92;38.10;98130.16;4470759;31;20660;-82
2022/08/17 05:58:46;;;;;;;12.05;6.05;;;;;;;29.92;36.29;98138.31;4470391;32;20133;-83
2022/08/17 06:01:39;;;;;;;11.93;6.45;;;;;;;30.06;36.37;98133.59;4470680;32;20085;-83
2022/08/17 06:04:19;;;;;;;11.57;5.50;;;;;;;29.98;36.73;98130.09;4472533;32;20140;-86
2022/08/17 06:06:52;;;;;;;11.48;5.85;;;;;;;29.88;36.40;98129.81;4472462;32;20104;-89
2022/08/17 06:09:40;;;;;;;12.37;6.07;;;;;;;29.98;36.57;98134.72;4458339;32;20143;-90
2022/08/17 06:12:31;;;;;;;10.80;5.82;;;;;;;29.95;36.34;98132.44;4458258;32;20105;-85
2022/08/17 06:15:06;;;;;;;14.23;6.37;;;;;;;29.94;36.23;98134.34;4474562;31;20131;-82
2022/08/17 06:17:32;;;;;;;12.18;5.62;;;;;;;30.11;38.56;98139.16;4471549;32;20111;-82
2022/08/17 06:20:10;;;;;;;11.85;5.97;;;;;;;30.24;39.15;98146.34;4487163;32;20064;-82
2022/08/17 06:22:49;;;;;;;13.68;6.35;;;;;;;30.46;38.34;98139.44;4473038;32;20112;-86
2022/08/17 06:25:41;;;;;;;11.60;5.82;;;;;;;30.59;38.04;98146.56;4472417;32;20179;-85
2022/08/17 06:28:13;;;;;;;12.80;6.78;;;;;;;30.60;38.34;98148.25;4473791;32;20115;-85
2022/08/17 06:30:51;;;;;;;13.57;6.50;;;;;;;30.68;37.26;98149.81;4487642;32;20130;-84
2022/08/17 06:33:25;;;;;;;12.85;6.65;;;;;;;30.67;37.75;98157.13;4473360;32;20100;-85
2022/08/17 06:36:31;;;;;;;14.15;6.50;;;;;;;30.87;37.48;98161.50;4487915;32;20146;-80
2022/08/17 06:39:19;;;;;;;13.20;6.03;;;;;;;30.97;37.35;98153.62;4423480;32;20244;-83
2022/08/17 06:41:56;;;;;;;16.33;6.55;;;;;;;31.02;37.38;98156.47;4414065;32;20081;-82
2022/08/17 06:44:46;;;;;;;13.38;6.30;;;;;;;31.12;36.32;98164.09;4431492;32;20522;-83
2022/08/17 06:47:44;;;;;;;11.63;6.05;;;;;;;31.34;36.10;98150.78;4422880;32;20201;-83
2022/08/17 06:50:15;;;;;;;11.43;5.78;;;;;;;31.40;35.10;98160.72;4427428;32;20093;-83
2022/08/17 06:53:01;;;;;;;12.57;5.47;;;;;;;31.43;34.36;98165.72;4429484;32;20170;-84
2022/08/17 06:55:45;;;;;;;11.35;5.78;;;;;;;31.48;32.83;98171.28;4411424;32;20567;-82
2022/08/17 06:58:12;;;;;;;12.63;5.72;;;;;;;31.60;33.13;98160.41;4419977;32;20110;-84
2022/08/17 07:00:41;;;;;;;11.68;5.90;;;;;;;31.61;33.34;98162.09;4410375;32;20148;-83
2022/08/17 07:03:30;;;;;;;11.40;6.20;;;;;;;31.57;33.04;98162.81;4422192;32;20077;-82
2022/08/17 07:05:59;;;;;;;12.55;5.80;;;;;;;31.61;33.87;98155.81;4410647;32;20175;-84
2022/08/17 07:08:32;;;;;;;11.12;5.65;;;;;;;31.71;33.86;98158.78;4423845;32;20143;-84
2022/08/17 07:11:02;;;;;;;11.10;6.05;;;;;;;31.63;33.45;98162.69;4411743;32;20209;-82
2022/08/17 07:13:42;;;;;;;11.80;5.87;;;;;;;31.77;33.57;98154.28;4400328;32;20124;-83
2022/08/17 07:16:15;;;;;;;11.43;5.70;;;;;;;31.84;32.59;98164.00;4487024;31;20127;-83
2022/08/17 07:18:42;;;;;;;11.80;5.90;;;;;;;31.68;33.31;98162.81;4491316;31;20108;-83
2022/08/17 07:21:37;;;;;;;11.80;5.68;;;;;;;31.80;33.37;98173.72;4472354;31;20125;-82
2022/08/17 07:24:31;;;;;;;13.45;5.93;;;;;;;31.97;33.15;98152.03;4477704;31;20084;-85
2022/08/17 07:27:05;;;;;;;13.45;6.07;;;;;;;31.80;33.80;98151.09;4470081;32;20164;-84
2022/08/17 07:29:37;;;;;;;11.93;6.00;;;;;;;32.04;33.11;98150.03;4470124;32;20285;-85
2022/08/17 07:32:03;;;;;;;11.80;5.95;;;;;;;32.16;32.88;98158.19;4468820;32;20096;-84
2022/08/17 07:34:28;;;;;;;12.13;5.90;;;;;;;31.89;33.39;98157.81;4471073;32;20140;-85
2022/08/17 07:37:04;;;;;;;12.15;5.72;;;;;;;32.06;33.23;98156.06;4471447;32;20394;-84
2022/08/17 07:39:29;;;;;;;12.77;5.72;;;;;;;32.24;32.91;98159.72;4471482;32;20097;-85
2022/08/17 07:42:01;;;;;;;11.70;5.78;;;;;;;32.29;32.74;98162.56;4472153;32;20146;-85
2022/08/17 07:44:26;;;;;;;12.50;6.20;;;;;;;32.20;32.93;98158.53;4470873;32;20080;-84
2022/08/17 07:49:40;;;;;;;13.18;6.30;;;;;;;32.43;32.67;98160.41;4471787;32;20119;-85
2022/08/17 07:52:11;;;;;;;13.23;6.00;;;;;;;32.40;32.60;98160.91;4470512;32;20084;-85
2022/08/17 07:54:40;;;;;;;13.62;5.78;;;;;;;32.24;33.13;98157.00;4471787;32;20685;-86
2022/08/17 07:57:14;;;;;;;13.10;6.28;;;;;;;32.33;33.15;98159.09;4471718;32;20150;-84
2022/08/17 07:59:39;;;;;;;12.65;5.85;;;;;;;32.33;32.95;98158.28;4471803;32;20093;-84
2022/08/17 08:02:39;;;;;;;12.90;6.05;;;;;;;32.48;32.69;98169.53;4471726;32;20101;-84
2022/08/17 08:05:31;;;;;;;11.90;5.80;;;;;;;32.63;32.51;98166.31;4471646;32;20437;-84
2022/08/17 08:08:18;;;;;;;11.40;6.12;;;;;;;32.68;32.49;98166.44;4469385;32;20136;-84
2022/08/17 08:10:57;;;;;;;14.32;6.20;;;;;;;32.82;31.80;98166.97;4471758;32;20474;-84
2022/08/17 08:13:26;;;;;;;14.20;6.15;;;;;;;32.89;31.71;98166.81;4470299;32;20111;-84
2022/08/17 08:16:14;;;;;;;12.35;5.90;;;;;;;32.78;31.78;98167.69;4470456;32;20102;-84
2022/08/17 08:18:43;;;;;;;12.35;6.20;;;;;;;32.97;31.78;98169.13;4462999;32;20400;-84
2022/08/17 08:21:19;;;;;;;13.13;6.45;;;;;;;33.04;31.56;98160.81;4470298;32;20113;-84
2022/08/17 08:24:12;;;;;;;12.40;6.35;;;;;;;32.99;31.45;98164.25;4470495;32;20104;-84
2022/08/17 08:26:45;;;;;;;12.02;6.07;;;;;;;33.04;31.51;98158.91;4470559;32;20114;-84
2022/08/17 08:29:27;;;;;;;10.82;5.72;;;;;;;32.98;31.10;98161.81;4471482;32;20673;-84
2022/08/17 08:32:18;;;;;;;13.02;6.30;;;;;;;32.95;31.23;98165.00;4471449;32;20741;-84
2022/08/17 08:35:05;;;;;;;12.90;5.93;;;;;;;32.17;32.14;98170.75;4470450;32;20469;-84
2022/08/17 08:37:58;;;;;;;12.57;6.20;;;;;;;31.96;32.58;98176.78;4471334;32;20111;-84
2022/08/17 08:40:33;;;;;;;13.02;6.28;;;;;;;32.30;32.21;98162.34;4471441;32;20089;-84
2022/08/17 08:43:06;;;;;;;13.23;6.28;;;;;;;32.44;32.30;98171.06;4471364;32;20135;-84
2022/08/17 08:45:48;;;;;;;12.75;6.00;;;;;;;32.66;31.95;98171.28;4471386;32;20205;-84
2022/08/17 08:48:30;;;;;;;11.50;6.05;;;;;;;32.56;32.67;98162.88;4470065;32;20432;-85
2022/08/17 08:51:00;;;;;;;13.27;6.18;;;;;;;32.48;32.17;98157.78;4470196;32;20117;-84
2022/08/17 08:53:47;;;;;;;12.85;6.15;;;;;;;32.69;32.04;98161.81;4470307;32;20198;-84
2022/08/17 08:56:46;;;;;;;12.10;6.00;;;;;;;32.90;31.58;98166.56;4471403;32;20101;-84
2022/08/17 08:59:29;;;;;;;14.55;6.05;;;;;;;32.82;31.71;98155.22;4470070;32;20084;-84
2022/08/17 09:02:21;;;;;;;14.98;5.95;;;;;;;32.98;31.26;98154.44;4471334;32;20101;-84
2022/08/17 09:05:07;;;;;;;10.50;5.85;;;;;;;33.09;31.08;98147.28;4471014;32;20153;-85
2022/08/17 09:07:40;;;;;;;12.57;5.40;;;;;;;32.83;30.63;98151.41;4471142;32;20085;-84
2022/08/17 09:10:19;;;;;;;12.70;5.50;;;;;;;32.81;30.33;98156.28;4471253;32;20049;-84
2022/08/17 09:12:56;;;;;;;11.95;5.40;;;;;;;32.61;30.26;98167.62;4470967;32;20089;-85
2022/08/17 09:15:28;;;;;;;10.77;4.45;;;;;;;32.43;29.44;98166.72;4469855;32;20163;-84
2022/08/17 09:18:03;;;;;;;10.60;4.45;;;;;;;32.50;29.26;98164.66;4470024;32;20081;-83
2022/08/17 09:20:34;;;;;;;9.50;4.10;;;;;;;32.58;27.68;98160.75;4471052;32;20152;-87
2022/08/17 09:23:06;;;;;;;9.80;4.25;;;;;;;32.58;27.01;98165.38;4471133;32;20111;-85
2022/08/17 09:25:43;;;;;;;9.32;4.62;;;;;;;32.55;26.80;98169.41;4470988;32;20140;-85
2022/08/17 09:28:20;;;;;;;9.32;4.18;;;;;;;32.41;26.95;98173.44;4469888;32;20456;-85
2022/08/17 09:30:51;;;;;;;9.80;4.40;;;;;;;32.77;26.38;98163.31;4470976;32;20069;-85
2022/08/17 09:33:21;;;;;;;10.52;4.60;;;;;;;32.68;26.63;98165.59;4469834;32;20096;-85
2022/08/17 09:36:04;;;;;;;9.48;4.47;;;;;;;32.64;27.30;98159.78;4469391;32;20145;-84
2022/08/17 09:39:01;;;;;;;8.80;4.45;;;;;;;32.78;27.01;98162.22;4469914;32;20076;-84
2022/08/17 09:41:40;;;;;;;9.20;4.70;;;;;;;32.62;26.98;98163.81;4469463;32;20520;-83
2022/08/17 09:44:23;;;;;;;9.63;4.78;;;;;;;32.56;27.13;98164.75;4456549;32;20484;-85
2022/08/17 09:46:53;;;;;;;10.02;4.72;;;;;;;32.54;28.13;98162.28;4469594;32;20093;-85
2022/08/17 09:49:59;;;;;;;9.43;4.65;;;;;;;32.71;27.21;98148.75;4469532;32;20440;-84
2022/08/17 09:52:27;;;;;;;9.90;4.70;;;;;;;32.61;27.33;98151.28;4421811;32;20089;-85
2022/08/17 09:54:55;;;;;;;8.70;3.83;;;;;;;32.99;26.67;98145.16;4409127;32;20292;-84
2022/08/17 09:57:31;;;;;;;9.38;4.25;;;;;;;32.84;25.70;98150.38;4421971;32;20153;-84
2022/08/17 10:00:38;;;;;;;9.43;4.03;;;;;;;32.61;25.87;98134.91;4409147;32;20619;-84
2022/08/17 10:03:14;;;;;;;10.57;4.03;;;;;;;32.64;25.27;98156.22;4420175;32;20284;-86
2022/08/17 10:05:46;;;;;;;8.73;3.67;;;;;;;32.46;25.56;98154.47;4421871;32;20251;-85
2022/08/17 10:08:30;;;;;;;8.80;3.70;;;;;;;32.78;25.44;98151.31;4421769;32;20105;-85
2022/08/17 10:11:07;;;;;;;10.80;3.80;;;;;;;32.63;24.49;98157.31;4421738;32;20086;-85
2022/08/17 10:13:41;;;;;;;8.25;3.92;;;;;;;32.83;24.76;98154.16;4421401;32;20121;-84
2022/08/17 10:16:31;;;;;;;9.35;3.87;;;;;;;32.63;25.62;98154.59;4421629;32;20132;-85
2022/08/17 10:19:21;;;;;;;9.70;4.20;;;;;;;32.37;26.23;98158.66;4421767;32;20503;-85
2022/08/17 10:27:25;;;;;;;10.80;4.45;;;;;;;32.89;25.77;98156.72;4431920;32;20152;-85
2022/08/17 10:29:57;;;;;;;9.18;4.25;;;;;;;32.68;26.50;98146.50;4470085;32;20092;-85
2022/08/17 10:32:32;;;;;;;10.88;4.45;;;;;;;32.70;26.71;98147.94;4468800;32;20089;-85
2022/08/17 10:35:24;;;;;;;10.63;4.53;;;;;;;32.88;26.09;98148.81;4468794;32;20470;-85
2022/08/17 10:38:15;;;;;;;9.30;4.55;;;;;;;32.98;26.05;98145.44;4468736;32;20100;-85
2022/08/17 10:40:49;;;;;;;11.48;4.90;;;;;;;33.00;25.95;98144.09;4469988;32;20443;-85
2022/08/17 10:43:37;;;;;;;10.80;4.20;;;;;;;33.07;26.57;98152.97;4468931;32;20093;-85
2022/08/17 10:46:26;;;;;;;9.95;3.95;;;;;;;33.06;25.97;98150.50;4468501;32;20152;-85
2022/08/17 10:49:10;;;;;;;9.35;4.20;;;;;;;32.75;26.21;98155.38;4469591;32;20180;-85
2022/08/17 10:51:39;;;;;;;10.00;4.62;;;;;;;32.82;26.57;98150.59;4472460;32;20706;-85
2022/08/17 10:54:06;;;;;;;10.82;5.07;;;;;;;32.82;27.27;98150.59;4470969;32;20147;-85
2022/08/17 10:56:47;;;;;;;10.23;4.47;;;;;;;33.37;26.09;98153.78;4470908;32;20448;-85
2022/08/17 10:59:34;;;;;;;10.40;4.22;;;;;;;33.25;25.69;98151.94;4471073;32;20480;-85
2022/08/17 11:02:18;;;;;;;10.07;4.00;;;;;;;33.30;25.02;98145.75;4472104;32;20214;-84
2022/08/17 11:05:09;;;;;;;9.80;3.80;;;;;;;33.29;25.13;98139.47;4472080;32;20544;-84
2022/08/17 11:07:44;;;;;;;9.60;4.18;;;;;;;33.40;24.91;98143.22;4410532;32;20086;-85
2022/08/17 11:10:15;;;;;;;8.88;4.18;;;;;;;33.30;25.32;98143.88;4423405;32;20122;-85
2022/08/17 11:13:00;;;;;;;12.40;4.35;;;;;;;33.41;25.17;98138.56;4423130;32;20109;-85
2022/08/17 11:15:50;;;;;;;12.85;4.50;;;;;;;33.53;24.69;98131.09;4423314;32;20130;-85
2022/08/17 11:18:30;;;;;;;9.68;3.85;;;;;;;33.60;24.71;98133.69;4423285;32;20176;-85
2022/08/17 11:20:58;;;;;;;10.60;4.12;;;;;;;33.31;24.83;98128.31;4423455;32;20101;-84
2022/08/17 11:23:51;;;;;;;9.40;3.80;;;;;;;33.56;24.74;98129.81;4423361;32;20097;-85
2022/08/17 11:26:24;;;;;;;11.30;4.03;;;;;;;33.51;24.40;98127.81;4423305;32;20488;-85
2022/08/17 11:28:55;;;;;;;10.25;4.00;;;;;;;33.59;24.44;98119.22;4423251;32;20097;-84
2022/08/17 11:31:40;;;;;;;9.30;4.20;;;;;;;33.28;24.80;98123.31;4398248;32;20568;-85
2022/08/17 11:34:12;;;;;;;9.00;3.87;;;;;;;33.53;24.65;98119.37;4410925;32;20157;-85
2022/08/17 11:37:11;;;;;;;8.88;4.10;;;;;;;33.50;24.42;98120.69;4423580;32;20090;-85
2022/08/17 11:40:04;;;;;;;8.15;3.83;;;;;;;33.83;24.31;98122.59;4423222;32;20078;-85
2022/08/17 11:43:06;;;;;;;8.77;4.10;;;;;;;33.87;24.07;98110.09;4423533;32;20157;-85
2022/08/17 11:45:44;;;;;;;7.97;3.97;;;;;;;33.78;24.45;98127.97;4462772;32;20109;-85
2022/08/17 11:53:57;;;;;;;9.18;4.35;;;;;;;33.77;24.48;98117.31;4471782;32;20184;-85
2022/08/17 11:56:32;;;;;;;10.30;4.10;;;;;;;33.92;24.33;98111.22;4471834;32;20407;-85
2022/08/17 11:58:59;;;;;;;10.38;4.05;;;;;;;34.11;24.02;98098.09;4471251;32;20486;-85
2022/08/17 12:01:25;;;;;;;9.52;4.12;;;;;;;33.93;24.94;98112.91;4471706;32;20113;-84
2022/08/17 12:04:13;;;;;;;9.10;4.25;;;;;;;34.41;23.92;98105.91;4471736;32;20163;-85
2022/08/17 12:06:49;;;;;;;9.45;3.95;;;;;;;34.32;23.82;98102.78;4470857;32;20173;-85
2022/08/17 12:09:18;;;;;;;10.13;4.12;;;;;;;34.03;24.36;98102.09;4470481;32;20123;-85
2022/08/17 12:12:04;;;;;;;10.38;4.50;;;;;;;34.37;23.62;98105.56;4470345;32;20141;-84
2022/08/17 12:14:32;;;;;;;9.13;3.90;;;;;;;34.30;23.46;98104.94;4470953;32;20096;-84
2022/08/17 12:16:58;;;;;;;11.52;4.20;;;;;;;34.34;23.70;98102.53;4470514;32;20149;-84
2022/08/17 12:19:26;;;;;;;9.27;4.00;;;;;;;34.35;23.52;98102.28;4471628;32;20496;-85
2022/08/17 12:22:04;;;;;;;9.82;4.18;;;;;;;34.16;24.14;98099.03;4471469;32;20080;-85
2022/08/17 12:25:02;;;;;;;10.90;4.03;;;;;;;34.12;23.79;98086.91;4470312;32;20159;-85